createdAt,value
2023-05-17T00:00:34.541Z,7.60
2023-05-17T00:03:01.879Z,7.00
2023-05-17T00:05:29.327Z,8.30
2023-05-17T00:07:56.669Z,6.80
2023-05-17T00:10:23.725Z,7.70
2023-05-17T00:12:50.796Z,6.30
2023-05-17T00:15:17.976Z,7.50
2023-05-17T00:17:45.057Z,5.60
2023-05-17T00:20:12.659Z,4.90
2023-05-17T00:22:41.167Z,7.80
2023-05-17T00:25:08.421Z,7.60
2023-05-17T00:27:35.532Z,5.60
2023-05-17T00:30:02.814Z,6.40
2023-05-17T00:32:29.925Z,6.60
2023-05-17T00:34:57.089Z,9.60
2023-05-17T00:37:24.191Z,6.70
2023-05-17T00:39:51.364Z,6.70
2023-05-17T00:42:18.425Z,6.40
2023-05-17T00:44:45.516Z,8.10
2023-05-17T00:47:12.558Z,6.80
2023-05-17T00:49:39.642Z,6.90
2023-05-17T00:52:06.992Z,7.00
2023-05-17T00:54:34.166Z,7.30
2023-05-17T00:57:01.661Z,7.00
2023-05-17T00:59:28.682Z,7.20
2023-05-17T01:01:56.138Z,6.20
2023-05-17T01:04:23.297Z,8.30
2023-05-17T01:06:50.760Z,7.10
2023-05-17T01:09:17.783Z,5.60
2023-05-17T01:11:54.500Z,7.40
2023-05-17T01:14:38.122Z,5.90
2023-05-17T01:17:09.218Z,7.90
2023-05-17T01:19:55.446Z,7.90
2023-05-17T01:23:02.523Z,6.60
2023-05-17T01:25:49.851Z,6.20
2023-05-17T01:28:18.658Z,6.40
2023-05-17T01:30:45.883Z,6.70
2023-05-17T01:33:13.087Z,4.90
2023-05-17T01:35:41.778Z,7.90
2023-05-17T01:38:08.900Z,7.90
2023-05-17T01:40:39.699Z,9.80
2023-05-17T01:43:18.704Z,5.50
2023-05-17T01:45:49.747Z,8.50
2023-05-17T01:48:19.928Z,7.50
2023-05-17T01:50:51.593Z,8.10
2023-05-17T01:53:27.806Z,7.10
2023-05-17T01:56:04.905Z,11.50
2023-05-17T01:58:32.072Z,6.80
2023-05-17T02:00:59.796Z,6.60
2023-05-17T02:03:28.041Z,8.20
2023-05-17T02:05:55.148Z,7.10
2023-05-17T02:08:22.326Z,6.20
2023-05-17T02:10:49.448Z,7.70
2023-05-17T02:13:16.612Z,6.80
2023-05-17T02:15:44.253Z,7.80
2023-05-17T02:18:12.035Z,9.40
2023-05-17T02:20:39.832Z,7.40
2023-05-17T02:23:07.997Z,9.10
2023-05-17T02:25:35.073Z,7.60
2023-05-17T02:28:02.461Z,10.70
2023-05-17T02:30:29.660Z,9.00
2023-05-17T02:32:57.270Z,9.00
2023-05-17T02:35:24.539Z,7.60
2023-05-17T02:37:52.277Z,7.90
2023-05-17T02:40:19.862Z,8.00
2023-05-17T02:42:46.954Z,6.80
2023-05-17T02:45:14.092Z,7.00
2023-05-17T02:47:41.211Z,6.70
2023-05-17T02:50:09.023Z,6.80
2023-05-17T02:52:36.295Z,5.90
2023-05-17T02:55:06.351Z,6.40
2023-05-17T02:57:33.409Z,8.00
2023-05-17T03:00:00.619Z,6.50
2023-05-17T03:02:28.352Z,6.70
2023-05-17T03:04:55.881Z,8.10
2023-05-17T03:07:23.016Z,7.00
2023-05-17T03:09:50.178Z,11.20
2023-05-17T03:12:17.302Z,7.80
2023-05-17T03:14:44.449Z,10.60
2023-05-17T03:17:12.173Z,11.20
2023-05-17T03:19:40.180Z,7.30
2023-05-17T03:22:07.287Z,5.50
2023-05-17T03:24:34.493Z,7.80
2023-05-17T03:27:01.720Z,5.00
2023-05-17T03:29:28.792Z,10.90
2023-05-17T03:31:56.055Z,6.50
2023-05-17T03:34:23.113Z,6.10
2023-05-17T03:36:50.459Z,5.80
2023-05-17T03:39:17.594Z,6.20
2023-05-17T03:41:44.868Z,8.60
2023-05-17T03:44:12.690Z,6.90
2023-05-17T03:46:39.744Z,6.40
2023-05-17T03:49:06.955Z,6.50
2023-05-17T03:51:35.156Z,5.20
2023-05-17T03:54:02.366Z,5.80
2023-05-17T03:56:31.496Z,6.30
2023-05-17T03:58:58.582Z,5.70
2023-05-17T04:01:25.786Z,8.50
2023-05-17T04:03:52.903Z,5.10
2023-05-17T04:06:20.903Z,6.00
2023-05-17T04:08:48.093Z,5.90
2023-05-17T04:11:15.188Z,5.30
2023-05-17T04:13:43.407Z,5.60
2023-05-17T04:16:10.684Z,5.30
2023-05-17T04:18:39.400Z,4.70
2023-05-17T04:21:07.074Z,4.60
2023-05-17T04:23:34.911Z,6.50
2023-05-17T04:26:03.540Z,5.30
2023-05-17T04:28:31.418Z,7.20
2023-05-17T04:30:58.658Z,5.30
2023-05-17T04:33:27.112Z,6.30
2023-05-17T04:35:55.259Z,9.00
2023-05-17T04:38:24.300Z,5.50
2023-05-17T04:40:51.564Z,4.40
2023-05-17T04:43:18.953Z,6.30
2023-05-17T04:45:46.897Z,4.50
2023-05-17T04:48:15.848Z,5.70
2023-05-17T04:50:45.886Z,5.10
2023-05-17T04:53:13.288Z,5.10
2023-05-17T04:55:40.955Z,5.10
2023-05-17T04:58:09.480Z,5.20
2023-05-17T05:00:37.938Z,7.00
2023-05-17T05:03:05.337Z,5.20
2023-05-17T05:05:33.555Z,3.60
2023-05-17T05:08:00.631Z,4.40
2023-05-17T05:10:31.247Z,4.10
2023-05-17T05:12:58.607Z,6.20
2023-05-17T05:15:25.857Z,5.20
2023-05-17T05:17:56.153Z,4.90
2023-05-17T05:20:24.205Z,8.50
2023-05-17T05:22:53.275Z,5.30
2023-05-17T05:25:21.443Z,8.30
2023-05-17T05:27:48.659Z,4.60
2023-05-17T05:30:22.311Z,4.20
2023-05-17T05:32:51.201Z,5.60
2023-05-17T05:35:18.621Z,4.10
2023-05-17T05:37:45.864Z,5.50
2023-05-17T05:40:14.311Z,4.20
2023-05-17T05:42:41.592Z,4.70
2023-05-17T05:45:11.099Z,4.30
2023-05-17T05:47:38.946Z,3.60
2023-05-17T05:50:07.276Z,6.60
2023-05-17T05:52:34.969Z,3.40
2023-05-17T05:55:02.101Z,3.40
2023-05-17T05:57:29.600Z,5.40
2023-05-17T05:59:56.765Z,3.40
2023-05-17T06:02:24.981Z,6.20
2023-05-17T06:04:52.117Z,4.80
2023-05-17T06:07:19.170Z,3.30
2023-05-17T06:09:46.299Z,4.80
2023-05-17T06:12:13.784Z,4.00
2023-05-17T06:14:40.868Z,3.60
2023-05-17T06:17:07.920Z,6.20
2023-05-17T06:19:35.410Z,4.40
2023-05-17T06:22:02.580Z,6.50
2023-05-17T06:24:29.739Z,2.80
2023-05-17T06:26:56.791Z,42.10
2023-05-17T06:29:24.474Z,37.80
2023-05-17T06:31:51.672Z,3.70
2023-05-17T06:34:18.737Z,4.20
2023-05-17T06:36:45.928Z,1.60
2023-05-17T06:39:13.158Z,5.90
2023-05-17T06:41:40.235Z,3.90
2023-05-17T06:44:08.140Z,3.10
2023-05-17T06:46:35.145Z,2.30
2023-05-17T06:49:02.602Z,2.10
2023-05-17T06:51:29.857Z,3.10
2023-05-17T06:53:56.871Z,2.70
2023-05-17T06:56:25.395Z,3.90
2023-05-17T06:58:52.437Z,2.30
2023-05-17T07:01:20.802Z,2.80
2023-05-17T07:03:47.933Z,3.10
2023-05-17T07:06:15.102Z,4.50
2023-05-17T07:08:42.155Z,2.40
2023-05-17T07:11:09.229Z,2.80
2023-05-17T07:13:36.258Z,4.40
2023-05-17T07:16:03.301Z,3.20
2023-05-17T07:18:30.484Z,2.80
2023-05-17T07:20:57.682Z,3.10
2023-05-17T07:23:24.788Z,2.10
2023-05-17T07:25:51.869Z,4.00
2023-05-17T07:28:18.973Z,2.90
2023-05-17T07:30:46.039Z,3.50
2023-05-17T07:33:13.133Z,3.90
2023-05-17T07:35:40.184Z,3.80
2023-05-17T07:38:07.266Z,3.30
2023-05-17T07:43:18.163Z,4.30
2023-05-17T07:45:45.385Z,4.30
2023-05-17T07:48:12.505Z,3.40
2023-05-17T07:50:39.989Z,3.70
2023-05-17T07:53:07.636Z,3.10
2023-05-17T07:55:34.882Z,5.90
2023-05-17T07:58:02.241Z,3.90
2023-05-17T08:00:29.915Z,3.40
2023-05-17T08:02:57.721Z,3.40
2023-05-17T08:05:25.179Z,5.20
2023-05-17T08:07:52.894Z,4.30
2023-05-17T08:10:20.138Z,7.00
2023-05-17T08:12:47.187Z,4.30
2023-05-17T08:15:14.207Z,4.80
2023-05-17T08:17:41.281Z,2.60
2023-05-17T08:20:09.907Z,3.20
2023-05-17T08:22:37.103Z,8.70
2023-05-17T08:25:04.755Z,4.80
2023-05-17T08:27:32.484Z,6.10
2023-05-17T08:30:00.044Z,4.80
2023-05-17T08:32:27.615Z,4.30
2023-05-17T08:34:55.221Z,7.90
2023-05-17T08:37:22.259Z,7.60
2023-05-17T08:39:50.390Z,4.40
2023-05-17T08:42:20.581Z,4.10
2023-05-17T08:44:47.802Z,4.90
2023-05-17T08:47:26.690Z,5.80
2023-05-17T08:49:56.247Z,5.70
2023-05-17T08:52:23.581Z,5.90
2023-05-17T08:54:50.845Z,6.40
2023-05-17T08:57:18.611Z,8.00
2023-05-17T08:59:45.861Z,7.60
2023-05-17T09:02:13.771Z,5.10
2023-05-17T09:04:41.275Z,3.90
2023-05-17T09:07:09.027Z,8.40
2023-05-17T09:09:36.066Z,5.70
2023-05-17T09:12:04.534Z,7.70
2023-05-17T09:14:36.074Z,6.30
2023-05-17T09:17:03.179Z,7.20
2023-05-17T09:19:30.784Z,8.50
2023-05-17T09:22:00.508Z,6.60
2023-05-17T09:24:30.260Z,8.70
2023-05-17T09:27:02.505Z,7.70
2023-05-17T09:29:34.173Z,9.20
2023-05-17T09:32:17.849Z,8.20
2023-05-17T09:34:46.049Z,5.10
2023-05-17T09:37:14.761Z,6.60
2023-05-17T09:39:42.842Z,4.80
2023-05-17T09:42:11.023Z,6.70
2023-05-17T09:44:48.286Z,5.20
2023-05-17T09:47:29.363Z,6.80
2023-05-17T09:49:58.387Z,4.20
2023-05-17T09:52:25.550Z,4.70
2023-05-17T09:54:56.523Z,5.20
2023-05-17T09:57:23.761Z,4.50
2023-05-17T09:59:51.056Z,4.10
2023-05-17T10:02:23.443Z,5.80
2023-05-17T10:04:51.477Z,6.40
2023-05-17T10:07:20.025Z,5.00
2023-05-17T10:09:50.363Z,5.80
2023-05-17T10:12:18.904Z,4.70
2023-05-17T10:14:46.145Z,5.20
2023-05-17T10:17:14.485Z,4.60
2023-05-17T10:19:42.253Z,5.40
2023-05-17T10:22:21.616Z,6.40
2023-05-17T10:24:51.634Z,6.40
2023-05-17T10:27:19.132Z,4.60
2023-05-17T10:29:49.284Z,4.30
2023-05-17T10:32:17.890Z,4.50
2023-05-17T10:34:47.517Z,4.70
2023-05-17T10:37:19.212Z,5.20
2023-05-17T10:39:47.253Z,6.60
2023-05-17T10:42:15.446Z,6.60
2023-05-17T10:44:43.098Z,4.30
2023-05-17T10:47:10.652Z,7.60
2023-05-17T10:49:39.209Z,4.30
2023-05-17T10:52:16.379Z,5.90
2023-05-17T10:54:44.456Z,4.10
2023-05-17T10:57:22.564Z,4.10
2023-05-17T11:00:00.042Z,5.10
2023-05-17T11:02:28.116Z,5.20
2023-05-17T11:04:56.895Z,4.50
2023-05-17T11:07:32.573Z,4.30
2023-05-17T11:10:00.207Z,2.70
2023-05-17T11:12:39.251Z,5.70
2023-05-17T11:15:12.309Z,4.20
2023-05-17T11:17:54.782Z,5.20
2023-05-17T11:22:59.119Z,3.50
2023-05-17T11:25:31.222Z,4.20
2023-05-17T11:27:58.432Z,3.60
2023-05-17T11:30:30.045Z,4.20
2023-05-17T11:33:07.210Z,3.80
2023-05-17T11:35:41.082Z,4.90
2023-05-17T11:38:24.888Z,4.20
2023-05-17T11:40:55.685Z,5.10
2023-05-17T11:43:24.107Z,4.50
2023-05-17T11:45:53.500Z,3.50
2023-05-17T11:48:24.306Z,3.70
2023-05-17T11:50:53.270Z,5.50
2023-05-17T11:53:20.435Z,7.30
2023-05-17T11:55:49.078Z,14.90
2023-05-17T11:58:17.763Z,3.70
2023-05-17T12:00:45.590Z,5.50
2023-05-17T12:03:20.090Z,6.30
2023-05-17T12:05:48.621Z,6.60
2023-05-17T12:08:17.564Z,4.80
2023-05-17T12:10:46.696Z,5.20
2023-05-17T12:13:13.813Z,3.60
2023-05-17T12:15:41.217Z,6.10
2023-05-17T12:18:08.423Z,3.70
2023-05-17T12:20:36.131Z,2.90
2023-05-17T12:23:03.165Z,5.60
2023-05-17T12:25:30.310Z,4.20
2023-05-17T12:28:22.907Z,4.50
2023-05-17T12:33:21.359Z,6.30
2023-05-17T12:35:48.558Z,4.50
2023-05-17T12:38:15.734Z,4.20
2023-05-17T12:40:43.445Z,3.90
2023-05-17T12:43:10.824Z,5.80
2023-05-17T12:45:37.922Z,5.50
2023-05-17T12:48:05.325Z,3.00
2023-05-17T12:50:32.864Z,5.60
2023-05-17T12:52:59.920Z,4.80
2023-05-17T12:55:27.321Z,6.10
2023-05-17T12:57:55.039Z,4.60
2023-05-17T13:00:22.288Z,3.90
2023-05-17T13:02:49.533Z,6.00
2023-05-17T13:05:18.660Z,5.00
2023-05-17T13:07:46.478Z,4.90
2023-05-17T13:10:27.319Z,7.10
2023-05-17T13:12:56.778Z,3.10
2023-05-17T13:15:29.290Z,3.40
2023-05-17T13:20:23.606Z,3.90
2023-05-17T13:22:51.211Z,4.80
2023-05-17T13:25:18.633Z,5.80
2023-05-17T13:27:48.917Z,3.40
2023-05-17T13:30:16.813Z,3.00
2023-05-17T13:32:44.654Z,4.50
2023-05-17T13:35:12.006Z,4.20
2023-05-17T13:37:39.170Z,5.30
2023-05-17T13:40:07.282Z,2.90
2023-05-17T13:42:34.410Z,6.60
2023-05-17T13:45:04.296Z,3.80
2023-05-17T13:47:32.508Z,4.60
2023-05-17T13:50:00.697Z,5.30
2023-05-17T13:52:27.987Z,4.20
2023-05-17T13:54:55.193Z,5.10
2023-05-17T13:57:22.204Z,5.90
2023-05-17T13:59:49.382Z,8.20
2023-05-17T14:02:16.428Z,4.20
2023-05-17T14:04:43.617Z,3.50
2023-05-17T14:07:10.753Z,3.60
2023-05-17T14:09:37.827Z,6.00
2023-05-17T14:12:05.180Z,5.50
2023-05-17T14:14:32.351Z,3.70
2023-05-17T14:16:59.488Z,6.20
2023-05-17T14:19:26.637Z,4.40
2023-05-17T14:21:53.876Z,6.90
2023-05-17T14:24:20.973Z,4.80
2023-05-17T14:26:48.042Z,4.10
2023-05-17T14:29:15.142Z,5.30
2023-05-17T14:31:42.635Z,6.10
2023-05-17T14:34:09.699Z,5.50
2023-05-17T14:36:38.781Z,6.20
2023-05-17T14:39:05.957Z,5.10
2023-05-17T14:41:33.026Z,3.90
2023-05-17T14:44:00.170Z,6.60
2023-05-17T14:46:27.213Z,4.70
2023-05-17T14:48:56.743Z,3.70
2023-05-17T14:51:25.309Z,4.80
2023-05-17T14:53:52.948Z,4.20
2023-05-17T14:56:19.969Z,5.50
2023-05-17T14:58:47.623Z,5.40
2023-05-17T15:01:15.455Z,5.00
2023-05-17T15:03:42.600Z,8.00
2023-05-17T15:06:11.872Z,3.50
2023-05-17T15:08:39.628Z,4.90
2023-05-17T15:11:06.773Z,2.90
2023-05-17T15:13:33.791Z,6.80
2023-05-17T15:16:02.991Z,5.30
2023-05-17T15:18:30.050Z,4.60
2023-05-17T15:20:57.098Z,8.10
2023-05-17T15:23:24.163Z,11.60
2023-05-17T15:25:51.374Z,4.20
2023-05-17T15:28:21.153Z,4.10
2023-05-17T15:30:48.291Z,4.30
2023-05-17T15:33:15.739Z,5.30
2023-05-17T15:35:43.446Z,3.50
2023-05-17T15:38:10.589Z,3.40
2023-05-17T15:40:37.886Z,4.30
2023-05-17T15:43:04.970Z,3.80
2023-05-17T15:45:32.624Z,12.60
2023-05-17T15:48:02.209Z,3.40
2023-05-17T15:50:29.556Z,3.10
2023-05-17T15:52:56.656Z,4.20
2023-05-17T15:55:23.739Z,4.20
2023-05-17T15:57:50.828Z,3.10
2023-05-17T16:00:18.136Z,4.40
2023-05-17T16:02:45.273Z,3.20
2023-05-17T16:05:12.570Z,2.20
2023-05-17T16:07:39.628Z,4.40
2023-05-17T16:10:07.797Z,3.30
2023-05-17T16:12:34.917Z,3.00
2023-05-17T16:15:01.950Z,2.70
2023-05-17T16:17:29.079Z,5.30
2023-05-17T16:19:56.447Z,2.20
2023-05-17T16:22:24.107Z,5.70
2023-05-17T16:24:54.375Z,4.20
2023-05-17T16:27:22.039Z,2.80
2023-05-17T16:29:49.142Z,4.90
2023-05-17T16:32:16.357Z,4.70
2023-05-17T16:34:43.530Z,4.40
2023-05-17T16:37:11.311Z,4.30
2023-05-17T16:39:38.381Z,5.00
2023-05-17T16:42:05.935Z,4.90
2023-05-17T16:44:33.144Z,3.70
2023-05-17T16:47:00.906Z,6.00
2023-05-17T16:49:29.198Z,5.50
2023-05-17T16:51:56.340Z,3.80
2023-05-17T16:54:23.573Z,5.80
2023-05-17T16:56:50.725Z,5.50
2023-05-17T16:59:17.796Z,4.00
2023-05-17T17:01:44.944Z,5.80
2023-05-17T17:04:12.233Z,3.00
2023-05-17T17:06:39.368Z,3.60
2023-05-17T17:09:08.407Z,3.40
2023-05-17T17:11:36.037Z,4.00
2023-05-17T17:14:03.121Z,3.50
2023-05-17T17:16:31.513Z,5.70
2023-05-17T17:18:58.946Z,4.80
2023-05-17T17:21:26.125Z,4.60
2023-05-17T17:23:53.823Z,6.70
2023-05-17T17:26:22.325Z,6.30
2023-05-17T17:28:49.368Z,5.10
2023-05-17T17:31:18.420Z,7.50
2023-05-17T17:33:45.494Z,6.30
2023-05-17T17:36:12.805Z,4.60
2023-05-17T17:38:39.857Z,3.40
2023-05-17T17:41:06.941Z,3.40
2023-05-17T17:43:34.000Z,5.40
2023-05-17T17:46:01.084Z,4.10
2023-05-17T17:48:28.189Z,3.90
2023-05-17T17:50:55.881Z,3.40
2023-05-17T17:53:23.536Z,16.70
2023-05-17T17:55:50.938Z,10.70
2023-05-17T17:58:18.023Z,9.70
2023-05-17T18:00:45.085Z,9.50
2023-05-17T18:03:13.225Z,8.50
2023-05-17T18:05:40.400Z,5.80
2023-05-17T18:08:07.511Z,9.20
2023-05-17T18:10:35.122Z,28.60
2023-05-17T18:13:02.239Z,85.00
2023-05-17T18:15:29.346Z,86.40
2023-05-17T18:17:57.483Z,53.40
2023-05-17T18:20:26.586Z,35.10
2023-05-17T18:22:54.279Z,24.50
2023-05-17T18:25:21.727Z,21.00
2023-05-17T18:27:48.848Z,18.40
2023-05-17T18:30:15.864Z,13.70
2023-05-17T18:32:43.009Z,13.70
2023-05-17T18:35:10.472Z,21.80
2023-05-17T18:37:37.657Z,29.10
2023-05-17T18:40:05.494Z,29.30
2023-05-17T18:42:32.623Z,33.10
2023-05-17T18:45:01.294Z,29.70
2023-05-17T18:47:28.649Z,29.30
2023-05-17T18:49:56.173Z,25.70
2023-05-17T18:52:23.425Z,24.80
2023-05-17T18:54:50.621Z,19.20
2023-05-17T18:57:17.833Z,18.10
2023-05-17T18:59:45.175Z,11.70
2023-05-17T19:02:12.400Z,10.20
2023-05-17T19:04:40.703Z,10.60
2023-05-17T19:07:07.818Z,25.70
2023-05-17T19:09:34.887Z,13.40
2023-05-17T19:12:02.015Z,9.00
2023-05-17T19:14:29.122Z,9.40
2023-05-17T19:16:57.217Z,7.40
2023-05-17T19:19:25.000Z,10.20
2023-05-17T19:21:52.460Z,10.50
2023-05-17T19:24:19.729Z,5.80
2023-05-17T19:26:47.208Z,8.80
2023-05-17T19:29:14.342Z,5.60
2023-05-17T19:31:44.409Z,6.70
2023-05-17T19:34:11.489Z,6.40
2023-05-17T19:36:38.742Z,6.30
2023-05-17T19:39:05.920Z,5.90
2023-05-17T19:41:33.006Z,5.80
2023-05-17T19:44:00.115Z,7.00
2023-05-17T19:46:27.317Z,6.90
2023-05-17T19:48:55.906Z,6.90
2023-05-17T19:51:23.584Z,5.90
2023-05-17T19:53:53.854Z,7.70
2023-05-17T19:56:23.576Z,7.40
2023-05-17T20:01:14.211Z,6.10
2023-05-17T20:03:41.853Z,5.80
2023-05-17T20:06:14.473Z,7.50
2023-05-17T20:08:42.039Z,8.80
2023-05-17T20:11:08.968Z,6.20
2023-05-17T20:13:39.604Z,5.80
2023-05-17T20:16:12.028Z,7.10
2023-05-17T20:18:42.918Z,10.20
2023-05-17T20:21:12.062Z,6.70
2023-05-17T20:23:39.408Z,7.10
2023-05-17T20:26:06.625Z,8.40
2023-05-17T20:28:33.542Z,6.20
2023-05-17T20:31:00.449Z,7.30
2023-05-17T20:33:27.382Z,9.90
2023-05-17T20:35:54.306Z,7.70
2023-05-17T20:38:21.957Z,8.40
2023-05-17T20:40:48.829Z,7.50
2023-05-17T20:43:16.374Z,11.70
2023-05-17T20:45:45.494Z,7.90
2023-05-17T20:48:12.554Z,9.10
2023-05-17T20:50:39.393Z,7.20
2023-05-17T20:53:06.381Z,6.60
2023-05-17T20:55:33.269Z,8.00
2023-05-17T20:58:00.832Z,7.30
2023-05-17T21:00:28.033Z,5.70
2023-05-17T21:02:55.629Z,8.40
2023-05-17T21:05:22.779Z,7.40
2023-05-17T21:07:50.091Z,7.80
2023-05-17T21:10:17.399Z,7.50
2023-05-17T21:12:44.448Z,9.80
2023-05-17T21:15:17.156Z,6.50
2023-05-17T21:17:44.661Z,7.60
2023-05-17T21:20:11.853Z,10.80
2023-05-17T21:22:38.759Z,8.70
2023-05-17T21:25:06.559Z,8.00
2023-05-17T21:27:33.953Z,10.10
2023-05-17T21:30:01.235Z,9.40
2023-05-17T21:32:28.357Z,13.00
2023-05-17T21:34:55.472Z,8.20
2023-05-17T21:37:22.407Z,11.30
2023-05-17T21:39:49.238Z,7.70
2023-05-17T21:42:16.290Z,8.20
2023-05-17T21:44:43.175Z,7.50
2023-05-17T21:47:10.178Z,12.10
2023-05-17T21:49:37.129Z,10.50
2023-05-17T21:52:04.377Z,12.70
2023-05-17T21:54:31.275Z,10.30
2023-05-17T21:56:58.178Z,8.40
2023-05-17T21:59:25.439Z,9.20
2023-05-17T22:01:54.432Z,10.90
2023-05-17T22:04:21.392Z,9.50
2023-05-17T22:06:48.257Z,13.60
2023-05-17T22:09:15.224Z,12.10
2023-05-17T22:11:42.141Z,10.10
2023-05-17T22:14:09.037Z,9.30
2023-05-17T22:16:36.189Z,11.90
2023-05-17T22:19:04.557Z,10.40
2023-05-17T22:21:32.561Z,11.10
2023-05-17T22:23:59.408Z,14.10
2023-05-17T22:26:27.274Z,10.10
2023-05-17T22:28:55.294Z,10.70
2023-05-17T22:31:22.299Z,12.40
2023-05-17T22:33:51.597Z,12.50
2023-05-17T22:36:19.087Z,14.20
2023-05-17T22:38:46.121Z,12.20
2023-05-17T22:41:13.047Z,13.00
2023-05-17T22:43:39.937Z,14.00
2023-05-17T22:46:06.968Z,14.60
2023-05-17T22:48:36.733Z,15.90
2023-05-17T22:51:04.038Z,13.80
2023-05-17T22:53:31.303Z,15.90
2023-05-17T22:55:58.205Z,15.40
2023-05-17T22:58:25.263Z,14.60
2023-05-17T23:00:52.398Z,16.20
2023-05-17T23:03:19.352Z,16.60
2023-05-17T23:05:47.019Z,16.70
2023-05-17T23:08:17.229Z,21.80
2023-05-17T23:10:44.257Z,18.00
2023-05-17T23:13:12.063Z,18.10
2023-05-17T23:15:40.243Z,19.30
2023-05-17T23:18:07.552Z,15.50
2023-05-17T23:20:35.574Z,16.40
2023-05-17T23:23:02.501Z,16.80
2023-05-17T23:25:31.169Z,19.30
2023-05-17T23:27:58.335Z,19.30
2023-05-17T23:30:25.801Z,22.30
2023-05-17T23:32:54.717Z,23.00
2023-05-17T23:35:24.557Z,23.20
2023-05-17T23:37:52.217Z,22.30
2023-05-17T23:40:19.422Z,22.60
2023-05-17T23:42:46.531Z,20.60
2023-05-17T23:45:13.400Z,22.50
2023-05-17T23:47:40.976Z,23.00
2023-05-17T23:50:09.843Z,26.00
2023-05-17T23:52:38.595Z,21.40
2023-05-17T23:55:08.701Z,21.20
2023-05-17T23:57:36.196Z,21.90
